createdAt,value
2023-03-31T00:00:30.488Z,5.95
2023-03-31T00:01:33.925Z,6.07
2023-03-31T00:02:37.308Z,8.70
2023-03-31T00:03:44.960Z,10.90
2023-03-31T00:04:52.679Z,8.33
2023-03-31T00:05:59.447Z,8.70
2023-03-31T00:07:01.119Z,8.80
2023-03-31T00:08:03.486Z,8.33
2023-03-31T00:09:11.919Z,13.50
2023-03-31T00:10:20.256Z,8.60
2023-03-31T00:11:22.538Z,8.10
2023-03-31T00:12:26.039Z,13.30
2023-03-31T00:13:28.669Z,6.90
2023-03-31T00:14:30.739Z,8.40
2023-03-31T00:15:32.792Z,9.87
2023-03-31T00:16:36.670Z,7.60
2023-03-31T00:17:38.558Z,8.37
2023-03-31T00:18:47.853Z,7.73
2023-03-31T00:19:50.069Z,6.23
2023-03-31T00:20:53.267Z,8.27
2023-03-31T00:21:54.912Z,6.27
2023-03-31T00:22:57.815Z,8.60
2023-03-31T00:24:02.880Z,6.63
2023-03-31T00:25:05.905Z,4.77
2023-03-31T00:26:08.190Z,9.53
2023-03-31T00:27:11.850Z,5.23
2023-03-31T00:28:13.523Z,10.23
2023-03-31T00:29:15.409Z,7.50
2023-03-31T00:30:17.849Z,9.43
2023-03-31T00:31:21.554Z,9.38
2023-03-31T00:32:24.065Z,14.03
2023-03-31T00:33:26.715Z,7.32
2023-03-31T00:34:29.383Z,7.83
2023-03-31T00:35:32.063Z,5.67
2023-03-31T00:36:37.223Z,11.43
2023-03-31T00:37:39.453Z,13.43
2023-03-31T00:38:45.930Z,11.53
2023-03-31T00:39:47.692Z,7.43
2023-03-31T00:40:51.144Z,15.23
2023-03-31T00:41:54.272Z,4.43
2023-03-31T00:42:56.256Z,9.77
2023-03-31T00:44:22.919Z,5.80
2023-03-31T00:45:29.147Z,8.60
2023-03-31T00:46:42.567Z,6.10
2023-03-31T00:47:51.015Z,4.73
2023-03-31T00:48:58.008Z,13.13
2023-03-31T00:50:00.130Z,7.30
2023-03-31T00:51:05.972Z,4.73
2023-03-31T00:52:15.224Z,7.73
2023-03-31T00:53:21.269Z,7.20
2023-03-31T00:54:26.667Z,13.38
2023-03-31T00:55:36.346Z,6.87
2023-03-31T00:56:42.005Z,10.60
2023-03-31T00:57:46.988Z,9.80
2023-03-31T00:58:49.913Z,11.18
2023-03-31T01:00:09.054Z,7.97
2023-03-31T01:01:17.337Z,8.73
2023-03-31T01:02:27.120Z,5.97
2023-03-31T01:03:33.654Z,4.03
2023-03-31T01:04:39.802Z,9.57
2023-03-31T01:05:50.596Z,5.00
2023-03-31T01:07:01.075Z,9.10
2023-03-31T01:08:05.754Z,11.18
2023-03-31T01:09:08.538Z,12.47
2023-03-31T01:10:12.471Z,6.83
2023-03-31T01:11:18.081Z,10.80
2023-03-31T01:12:22.499Z,4.28
2023-03-31T01:13:26.496Z,6.00
2023-03-31T01:14:28.638Z,8.53
2023-03-31T01:15:30.262Z,4.20
2023-03-31T01:16:34.677Z,6.37
2023-03-31T01:17:38.874Z,11.57
2023-03-31T01:18:41.238Z,9.37
2023-03-31T01:19:50.663Z,10.43
2023-03-31T01:21:23.489Z,5.63
2023-03-31T01:22:54.806Z,8.57
2023-03-31T01:24:04.709Z,9.00
2023-03-31T01:25:43.879Z,9.10
2023-03-31T01:27:06.946Z,5.10
2023-03-31T01:28:27.000Z,4.20
2023-03-31T01:29:42.398Z,7.93
2023-03-31T01:30:44.277Z,9.10
2023-03-31T01:32:10.421Z,7.10
2023-03-31T01:33:36.324Z,7.10
2023-03-31T01:35:08.946Z,5.73
2023-03-31T01:36:10.824Z,9.90
2023-03-31T01:37:33.845Z,11.50
2023-03-31T01:38:59.192Z,7.30
2023-03-31T01:40:10.921Z,10.73
2023-03-31T01:41:35.937Z,8.00
2023-03-31T01:42:40.556Z,6.33
2023-03-31T01:43:53.145Z,11.70
2023-03-31T01:45:09.602Z,8.73
2023-03-31T01:46:33.928Z,18.20
2023-03-31T01:47:44.759Z,9.83
2023-03-31T01:49:20.333Z,7.80
2023-03-31T01:50:31.248Z,7.20
2023-03-31T01:51:58.507Z,8.68
2023-03-31T01:53:21.256Z,5.23
2023-03-31T01:54:34.750Z,11.13
2023-03-31T01:55:52.451Z,9.90
2023-03-31T01:57:15.186Z,13.85
2023-03-31T01:58:43.120Z,10.50
2023-03-31T02:00:14.900Z,10.83
2023-03-31T02:01:41.354Z,9.40
2023-03-31T02:02:48.860Z,13.97
2023-03-31T02:03:56.974Z,10.73
2023-03-31T02:05:09.905Z,8.27
2023-03-31T02:06:24.742Z,5.73
2023-03-31T02:07:37.713Z,15.20
2023-03-31T02:08:44.792Z,11.80
2023-03-31T02:09:57.996Z,6.03
2023-03-31T02:11:00.543Z,8.85
2023-03-31T02:12:08.438Z,9.97
2023-03-31T02:13:13.154Z,9.07
2023-03-31T02:14:22.742Z,8.83
2023-03-31T02:15:34.801Z,5.27
2023-03-31T02:16:42.110Z,11.37
2023-03-31T02:17:48.761Z,13.07
2023-03-31T02:18:54.405Z,8.80
2023-03-31T02:20:01.854Z,8.75
2023-03-31T02:21:05.558Z,12.20
2023-03-31T02:22:09.835Z,8.10
2023-03-31T02:23:15.357Z,11.15
2023-03-31T02:24:19.995Z,12.98
2023-03-31T02:25:30.253Z,9.52
2023-03-31T02:26:39.170Z,6.33
2023-03-31T02:27:43.605Z,11.32
2023-03-31T02:28:45.805Z,12.83
2023-03-31T02:29:49.771Z,7.10
2023-03-31T02:31:14.477Z,7.67
2023-03-31T02:32:32.670Z,8.60
2023-03-31T02:33:34.959Z,11.57
2023-03-31T02:34:37.077Z,8.37
2023-03-31T02:35:40.253Z,12.02
2023-03-31T02:36:44.200Z,5.93
2023-03-31T02:37:46.727Z,6.57
2023-03-31T02:38:55.879Z,10.68
2023-03-31T02:40:03.301Z,8.73
2023-03-31T02:41:08.015Z,9.73
2023-03-31T02:42:10.228Z,8.17
2023-03-31T02:43:12.038Z,6.82
2023-03-31T02:44:15.316Z,5.60
2023-03-31T02:45:41.262Z,8.43
2023-03-31T02:46:43.646Z,15.02
2023-03-31T02:47:45.818Z,11.63
2023-03-31T02:48:51.616Z,15.27
2023-03-31T02:49:57.826Z,15.53
2023-03-31T02:51:09.268Z,12.30
2023-03-31T02:52:29.161Z,9.90
2023-03-31T02:53:43.032Z,11.43
2023-03-31T02:54:47.794Z,10.95
2023-03-31T02:56:22.572Z,9.80
2023-03-31T02:57:58.094Z,10.38
2023-03-31T02:59:31.377Z,17.42
2023-03-31T03:00:45.464Z,14.23
2023-03-31T03:02:07.719Z,13.15
2023-03-31T03:03:21.250Z,10.77
2023-03-31T03:04:25.907Z,11.65
2023-03-31T03:05:55.428Z,10.20
2023-03-31T03:07:10.354Z,9.32
2023-03-31T03:08:35.667Z,15.13
2023-03-31T03:09:55.200Z,8.07
2023-03-31T03:11:02.647Z,8.07
2023-03-31T03:12:22.863Z,7.82
2023-03-31T03:13:37.099Z,9.82
2023-03-31T03:14:41.926Z,12.32
2023-03-31T03:15:52.777Z,10.02
2023-03-31T03:17:03.376Z,13.27
2023-03-31T03:18:06.718Z,10.23
2023-03-31T03:19:10.763Z,13.07
2023-03-31T03:20:14.084Z,17.30
2023-03-31T03:21:15.816Z,6.90
2023-03-31T03:22:17.769Z,10.45
2023-03-31T03:23:19.817Z,9.30
2023-03-31T03:24:23.309Z,10.27
2023-03-31T03:25:26.260Z,9.13
2023-03-31T03:26:28.970Z,9.10
2023-03-31T03:27:30.804Z,9.18
2023-03-31T03:28:33.323Z,12.05
2023-03-31T03:29:35.324Z,16.15
2023-03-31T03:30:37.886Z,10.40
2023-03-31T03:31:39.605Z,11.57
2023-03-31T03:32:41.884Z,11.60
2023-03-31T03:33:43.939Z,8.40
2023-03-31T03:34:45.577Z,7.95
2023-03-31T03:35:47.323Z,13.70
2023-03-31T03:36:48.992Z,16.55
2023-03-31T03:37:50.930Z,11.80
2023-03-31T03:38:52.742Z,8.32
2023-03-31T03:39:54.412Z,16.70
2023-03-31T03:40:56.356Z,11.27
2023-03-31T03:41:58.217Z,13.98
2023-03-31T03:43:00.155Z,9.73
2023-03-31T03:44:01.853Z,7.82
2023-03-31T03:45:04.072Z,13.32
2023-03-31T03:46:06.189Z,15.52
2023-03-31T03:47:08.359Z,7.47
2023-03-31T03:48:10.190Z,11.18
2023-03-31T03:49:12.795Z,17.10
2023-03-31T03:50:16.656Z,12.00
2023-03-31T03:51:18.454Z,19.42
2023-03-31T03:52:21.117Z,9.52
2023-03-31T03:53:24.092Z,12.50
2023-03-31T03:54:26.489Z,11.55
2023-03-31T03:55:29.420Z,13.32
2023-03-31T03:56:31.308Z,13.00
2023-03-31T03:57:33.251Z,13.10
2023-03-31T03:58:35.560Z,9.82
2023-03-31T03:59:37.410Z,13.80
2023-03-31T04:00:39.374Z,12.40
2023-03-31T04:01:41.585Z,7.72
2023-03-31T04:02:44.163Z,7.35
2023-03-31T04:03:46.061Z,8.93
2023-03-31T04:04:47.943Z,14.23
2023-03-31T04:05:50.756Z,11.48
2023-03-31T04:06:52.785Z,15.07
2023-03-31T04:07:55.485Z,12.82
2023-03-31T04:08:58.710Z,8.55
2023-03-31T04:10:00.458Z,12.80
2023-03-31T04:11:02.675Z,8.68
2023-03-31T04:12:06.106Z,15.50
2023-03-31T04:13:07.707Z,12.03
2023-03-31T04:14:09.345Z,13.43
2023-03-31T04:15:11.666Z,14.63
2023-03-31T04:16:13.769Z,10.33
2023-03-31T04:17:16.132Z,18.80
2023-03-31T04:18:24.100Z,11.70
2023-03-31T04:19:26.484Z,13.43
2023-03-31T04:20:32.733Z,10.70
2023-03-31T04:21:36.796Z,12.57
2023-03-31T04:22:41.692Z,17.80
2023-03-31T04:23:47.105Z,17.17
2023-03-31T04:24:52.903Z,10.80
2023-03-31T04:25:54.579Z,12.40
2023-03-31T04:26:57.404Z,20.20
2023-03-31T04:27:59.304Z,10.23
2023-03-31T04:29:01.386Z,19.27
2023-03-31T04:30:03.114Z,16.60
2023-03-31T04:31:06.595Z,8.15
2023-03-31T04:32:08.441Z,15.82
2023-03-31T04:33:10.133Z,14.20
2023-03-31T04:34:14.782Z,14.45
2023-03-31T04:35:17.995Z,17.25
2023-03-31T04:36:21.604Z,15.97
2023-03-31T04:37:28.359Z,16.57
2023-03-31T04:38:33.680Z,14.43
2023-03-31T04:39:35.374Z,14.67
2023-03-31T04:40:37.404Z,13.82
2023-03-31T04:41:41.467Z,14.20
2023-03-31T04:42:45.073Z,12.73
2023-03-31T04:43:46.890Z,9.27
2023-03-31T04:44:50.221Z,10.95
2023-03-31T04:45:52.164Z,16.58
2023-03-31T04:46:54.704Z,24.67
2023-03-31T04:47:56.625Z,13.15
2023-03-31T04:48:59.713Z,12.17
2023-03-31T04:50:01.568Z,17.17
2023-03-31T04:51:06.440Z,19.65
2023-03-31T04:52:08.377Z,16.50
2023-03-31T04:53:10.041Z,13.75
2023-03-31T04:54:12.249Z,17.42
2023-03-31T04:55:14.693Z,20.15
2023-03-31T04:56:17.115Z,14.73
2023-03-31T04:57:20.138Z,15.27
2023-03-31T04:58:22.141Z,17.87
2023-03-31T04:59:23.973Z,25.47
2023-03-31T05:00:28.766Z,16.43
2023-03-31T05:01:36.766Z,17.33
2023-03-31T05:02:39.109Z,26.30
2023-03-31T05:03:42.261Z,15.52
2023-03-31T05:04:43.918Z,11.38
2023-03-31T05:05:45.968Z,21.80
2023-03-31T05:06:47.816Z,12.73
2023-03-31T05:07:49.886Z,21.20
2023-03-31T05:08:51.521Z,14.97
2023-03-31T05:09:53.550Z,16.95
2023-03-31T05:10:55.914Z,17.80
2023-03-31T05:11:59.630Z,18.53
2023-03-31T05:13:02.293Z,17.53
2023-03-31T05:14:04.532Z,16.40
2023-03-31T05:15:07.406Z,15.00
2023-03-31T05:16:12.557Z,20.83
2023-03-31T05:17:14.183Z,21.02
2023-03-31T05:18:16.413Z,17.73
2023-03-31T05:19:21.315Z,19.03
2023-03-31T05:20:23.514Z,20.23
2023-03-31T05:21:27.765Z,24.08
2023-03-31T05:22:30.859Z,20.97
2023-03-31T05:23:32.797Z,20.02
2023-03-31T05:24:34.510Z,21.27
2023-03-31T05:25:36.454Z,27.70
2023-03-31T05:26:38.173Z,18.25
2023-03-31T05:27:40.861Z,25.33
2023-03-31T05:28:42.956Z,30.60
2023-03-31T05:29:44.726Z,18.70
2023-03-31T05:30:46.486Z,28.57
2023-03-31T05:31:50.049Z,16.63
2023-03-31T05:32:52.650Z,17.30
2023-03-31T05:33:54.681Z,15.33
2023-03-31T05:34:57.264Z,17.53
2023-03-31T05:36:00.500Z,16.40
2023-03-31T05:37:02.766Z,34.60
2023-03-31T05:38:04.859Z,14.50
2023-03-31T05:39:08.409Z,21.20
2023-03-31T05:40:11.041Z,25.58
2023-03-31T05:41:13.021Z,24.77
2023-03-31T05:42:14.848Z,27.70
2023-03-31T05:43:16.909Z,29.53
2023-03-31T05:44:21.244Z,23.20
2023-03-31T05:45:24.581Z,25.40
2023-03-31T05:46:26.977Z,26.83
2023-03-31T05:47:30.763Z,23.87
2023-03-31T05:48:32.679Z,23.80
2023-03-31T05:49:35.023Z,27.97
2023-03-31T05:50:38.303Z,30.35
2023-03-31T05:51:39.913Z,32.67
2023-03-31T05:52:41.825Z,29.93
2023-03-31T05:53:44.166Z,20.80
2023-03-31T05:54:47.181Z,18.10
2023-03-31T05:55:48.797Z,29.83
2023-03-31T05:56:50.699Z,23.70
2023-03-31T05:57:52.586Z,16.95
2023-03-31T05:58:54.635Z,19.60
2023-03-31T05:59:56.414Z,28.10
2023-03-31T06:01:03.070Z,26.93
2023-03-31T06:02:05.616Z,29.37
2023-03-31T06:03:08.460Z,25.30
2023-03-31T06:04:10.232Z,17.43
2023-03-31T06:05:11.904Z,29.25
2023-03-31T06:06:15.334Z,32.20
2023-03-31T06:07:18.791Z,33.58
2023-03-31T06:08:20.555Z,30.35
2023-03-31T06:09:24.577Z,28.13
2023-03-31T06:10:26.310Z,27.47
2023-03-31T06:11:30.039Z,25.05
2023-03-31T06:12:32.920Z,27.77
2023-03-31T06:13:36.449Z,27.23
2023-03-31T06:14:38.300Z,33.40
2023-03-31T06:15:39.987Z,27.63
2023-03-31T06:16:41.694Z,23.80
2023-03-31T06:17:44.784Z,23.77
2023-03-31T06:18:49.498Z,23.37
2023-03-31T06:19:51.449Z,21.13
2023-03-31T06:20:53.222Z,24.83
2023-03-31T06:21:55.814Z,24.40
2023-03-31T06:22:57.771Z,22.87
2023-03-31T06:24:00.398Z,24.50
2023-03-31T06:25:03.491Z,12.93
2023-03-31T06:26:08.501Z,11.87
2023-03-31T06:27:11.131Z,16.60
2023-03-31T06:28:13.851Z,9.20
2023-03-31T06:29:18.288Z,7.20
2023-03-31T06:30:20.631Z,6.70
2023-03-31T06:31:25.084Z,6.68
2023-03-31T06:32:27.406Z,11.82
2023-03-31T06:33:30.877Z,8.48
2023-03-31T06:34:32.772Z,4.82
2023-03-31T06:35:38.487Z,8.00
2023-03-31T06:36:40.558Z,7.10
2023-03-31T06:37:42.362Z,7.40
2023-03-31T06:38:44.431Z,6.87
2023-03-31T06:39:46.196Z,9.10
2023-03-31T06:40:48.381Z,7.30
2023-03-31T06:41:50.806Z,9.23
2023-03-31T06:42:52.513Z,6.00
2023-03-31T06:43:54.991Z,8.60
2023-03-31T06:44:56.865Z,7.50
2023-03-31T06:45:59.190Z,9.77
2023-03-31T06:47:01.199Z,6.10
2023-03-31T06:48:02.818Z,7.47
2023-03-31T06:49:04.702Z,7.90
2023-03-31T06:50:08.162Z,8.80
2023-03-31T06:51:11.215Z,4.03
2023-03-31T06:52:13.244Z,8.23
2023-03-31T06:53:15.692Z,3.60
2023-03-31T06:54:17.315Z,7.43
2023-03-31T06:55:19.370Z,3.83
2023-03-31T06:56:21.991Z,4.80
2023-03-31T06:57:23.999Z,6.47
2023-03-31T06:58:29.727Z,4.00
2023-03-31T06:59:32.911Z,3.63
2023-03-31T07:00:36.586Z,7.57
2023-03-31T07:01:39.301Z,3.47
2023-03-31T07:02:41.700Z,6.73
2023-03-31T07:03:43.388Z,3.08
2023-03-31T07:04:45.350Z,2.22
2023-03-31T07:05:52.000Z,3.17
2023-03-31T07:06:54.183Z,3.10
2023-03-31T07:07:59.637Z,2.13
2023-03-31T07:09:01.296Z,7.43
2023-03-31T07:10:03.144Z,2.70
2023-03-31T07:11:05.675Z,4.47
2023-03-31T07:12:07.965Z,5.80
2023-03-31T07:13:10.573Z,4.30
2023-03-31T07:14:12.618Z,6.07
2023-03-31T07:15:14.405Z,1.80
2023-03-31T07:16:16.597Z,2.43
2023-03-31T07:17:18.645Z,5.23
2023-03-31T07:18:22.235Z,3.50
2023-03-31T07:19:24.103Z,3.50
2023-03-31T07:20:26.090Z,5.73
2023-03-31T07:21:28.013Z,2.75
2023-03-31T07:22:30.996Z,3.17
2023-03-31T07:23:32.826Z,4.00
2023-03-31T07:24:34.701Z,2.55
2023-03-31T07:25:36.889Z,4.25
2023-03-31T07:26:38.586Z,4.57
2023-03-31T07:27:40.562Z,2.83
2023-03-31T07:28:42.574Z,6.43
2023-03-31T07:29:44.610Z,2.33
2023-03-31T07:30:46.174Z,2.78
2023-03-31T07:31:48.782Z,2.50
2023-03-31T07:32:51.788Z,1.90
2023-03-31T07:33:53.923Z,6.77
2023-03-31T07:34:56.113Z,4.10
2023-03-31T07:36:10.603Z,5.90
2023-03-31T07:37:15.829Z,1.77
2023-03-31T07:38:17.499Z,2.97
2023-03-31T07:39:19.749Z,4.35
2023-03-31T07:40:26.013Z,3.88
2023-03-31T07:41:27.807Z,2.87
2023-03-31T07:42:29.842Z,6.30
2023-03-31T07:43:32.116Z,4.10
2023-03-31T07:44:35.245Z,9.27
2023-03-31T07:45:39.413Z,4.97
2023-03-31T07:46:41.152Z,4.70
2023-03-31T07:47:45.426Z,4.30
2023-03-31T07:48:47.849Z,3.23
2023-03-31T07:49:50.522Z,5.53
2023-03-31T07:50:52.250Z,5.70
2023-03-31T07:51:54.736Z,4.50
2023-03-31T07:52:56.472Z,9.93
2023-03-31T07:53:58.198Z,3.23
2023-03-31T07:54:59.909Z,4.38
2023-03-31T07:56:02.787Z,9.17
2023-03-31T07:57:06.515Z,6.10
2023-03-31T07:58:08.409Z,8.60
2023-03-31T07:59:10.765Z,7.80
2023-03-31T08:00:16.473Z,10.75
2023-03-31T08:01:21.885Z,6.47
2023-03-31T08:02:24.852Z,9.10
2023-03-31T08:03:27.417Z,11.13
2023-03-31T08:04:29.799Z,6.80
2023-03-31T08:05:32.249Z,7.53
2023-03-31T08:06:34.042Z,3.23
2023-03-31T08:07:41.953Z,7.50
2023-03-31T08:08:46.020Z,9.15
2023-03-31T08:09:48.241Z,18.33
2023-03-31T08:10:51.359Z,5.47
2023-03-31T08:11:53.419Z,7.60
2023-03-31T08:12:55.830Z,6.60
2023-03-31T08:13:57.644Z,14.63
2023-03-31T08:14:59.787Z,14.25
2023-03-31T08:16:02.270Z,6.23
2023-03-31T08:17:04.299Z,5.17
2023-03-31T08:18:06.524Z,11.47
2023-03-31T08:19:08.477Z,9.30
2023-03-31T08:20:11.476Z,11.53
2023-03-31T08:21:14.544Z,10.97
2023-03-31T08:22:17.672Z,9.95
2023-03-31T08:23:19.430Z,8.00
2023-03-31T08:24:21.992Z,4.80
2023-03-31T08:25:25.024Z,7.90
2023-03-31T08:26:27.098Z,13.37
2023-03-31T08:27:30.385Z,10.43
2023-03-31T08:28:33.518Z,1.90
2023-03-31T08:29:35.314Z,9.03
2023-03-31T08:30:39.113Z,3.00
2023-03-31T08:31:41.034Z,6.03
2023-03-31T08:32:42.866Z,6.03
2023-03-31T08:33:45.707Z,4.87
2023-03-31T08:34:47.445Z,4.72
2023-03-31T08:35:49.290Z,6.83
2023-03-31T08:36:51.104Z,5.00
2023-03-31T08:37:53.163Z,3.28
2023-03-31T08:38:55.593Z,4.30
2023-03-31T08:39:57.369Z,3.20
2023-03-31T08:41:01.708Z,5.80
2023-03-31T08:42:13.966Z,3.03
2023-03-31T08:43:27.412Z,4.07
2023-03-31T08:44:35.868Z,4.57
2023-03-31T08:45:42.074Z,3.40
2023-03-31T08:46:44.233Z,3.63
2023-03-31T08:47:49.376Z,5.90
2023-03-31T08:48:55.041Z,2.40
2023-03-31T08:50:02.430Z,7.57
2023-03-31T08:51:15.118Z,1.93
2023-03-31T08:52:20.992Z,2.13
2023-03-31T08:53:28.724Z,4.10
2023-03-31T08:54:34.593Z,4.33
2023-03-31T08:55:46.813Z,11.17
2023-03-31T08:56:51.234Z,3.93
2023-03-31T08:58:03.164Z,2.70
2023-03-31T08:59:07.007Z,4.07
2023-03-31T09:00:17.585Z,6.87
2023-03-31T09:01:57.104Z,4.03
2023-03-31T09:03:11.674Z,4.60
2023-03-31T09:04:28.351Z,7.93
2023-03-31T09:05:43.215Z,3.70
2023-03-31T09:07:03.012Z,2.70
2023-03-31T09:08:19.606Z,5.40
2023-03-31T09:09:44.340Z,10.50
2023-03-31T09:11:08.524Z,5.13
2023-03-31T09:12:58.200Z,4.27
2023-03-31T09:14:07.286Z,14.73
2023-03-31T09:15:22.813Z,4.83
2023-03-31T09:16:27.557Z,2.87
2023-03-31T09:17:41.955Z,10.87
2023-03-31T09:18:47.204Z,7.35
2023-03-31T09:20:00.189Z,9.10
2023-03-31T09:21:12.727Z,5.67
2023-03-31T09:22:20.224Z,8.70
2023-03-31T09:23:27.737Z,7.93
2023-03-31T09:24:36.047Z,13.30
2023-03-31T09:25:41.586Z,5.90
2023-03-31T09:26:58.409Z,7.77
2023-03-31T09:28:03.768Z,7.33
2023-03-31T09:29:12.574Z,13.20
2023-03-31T09:30:20.626Z,6.33
2023-03-31T09:31:22.819Z,8.63
2023-03-31T09:32:33.303Z,8.98
2023-03-31T09:33:40.504Z,9.98
2023-03-31T09:34:43.107Z,7.27
2023-03-31T09:35:46.472Z,11.37
2023-03-31T09:36:48.434Z,7.43
2023-03-31T09:37:51.389Z,8.50
2023-03-31T09:38:53.405Z,4.45
2023-03-31T09:39:55.195Z,9.20
2023-03-31T09:41:02.532Z,5.85
2023-03-31T09:42:04.915Z,8.70
2023-03-31T09:43:14.203Z,14.63
2023-03-31T09:44:23.190Z,12.05
2023-03-31T09:45:25.626Z,10.93
2023-03-31T09:46:34.870Z,7.30
2023-03-31T09:47:43.485Z,9.60
2023-03-31T09:49:03.044Z,11.73
2023-03-31T09:50:07.390Z,9.03
2023-03-31T09:51:18.531Z,11.20
2023-03-31T09:52:32.959Z,17.17
2023-03-31T09:53:48.362Z,12.68
2023-03-31T09:54:53.308Z,12.80
2023-03-31T09:56:01.029Z,9.00
2023-03-31T09:57:12.696Z,8.50
2023-03-31T09:58:17.843Z,11.37
2023-03-31T09:59:22.695Z,11.03
2023-03-31T10:00:25.386Z,9.70
2023-03-31T10:01:31.681Z,13.83
2023-03-31T10:02:37.921Z,9.20
2023-03-31T10:03:52.413Z,12.60
2023-03-31T10:04:54.791Z,6.10
2023-03-31T10:05:58.984Z,12.27
2023-03-31T10:07:02.334Z,13.40
2023-03-31T10:08:18.122Z,18.23
2023-03-31T10:09:25.365Z,9.20
2023-03-31T10:10:36.153Z,10.75
2023-03-31T10:11:39.539Z,6.53
2023-03-31T10:12:41.438Z,15.67
2023-03-31T10:13:50.896Z,4.57
2023-03-31T10:14:55.090Z,13.30
2023-03-31T10:16:08.429Z,9.00
2023-03-31T10:17:15.935Z,12.00
2023-03-31T10:18:20.999Z,11.80
2023-03-31T10:19:28.687Z,12.67
2023-03-31T10:20:30.761Z,8.57
2023-03-31T10:21:38.677Z,9.93
2023-03-31T10:22:44.985Z,9.53
2023-03-31T10:23:48.720Z,10.27
2023-03-31T10:24:52.998Z,13.10
2023-03-31T10:25:56.530Z,18.13
2023-03-31T10:26:58.464Z,8.30
2023-03-31T10:28:02.973Z,12.70
2023-03-31T10:29:13.004Z,11.47
2023-03-31T10:30:34.384Z,11.73
2023-03-31T10:31:38.028Z,10.70
2023-03-31T10:32:43.344Z,11.20
2023-03-31T10:33:47.978Z,12.10
2023-03-31T10:34:50.599Z,14.23
2023-03-31T10:36:00.258Z,11.73
2023-03-31T10:37:04.770Z,7.93
2023-03-31T10:38:13.742Z,16.00
2023-03-31T10:39:17.481Z,6.73
2023-03-31T10:40:28.405Z,11.37
2023-03-31T10:41:30.919Z,9.20
2023-03-31T10:42:34.655Z,7.70
2023-03-31T10:43:42.664Z,15.30
2023-03-31T10:44:44.516Z,7.85
2023-03-31T10:45:57.739Z,6.37
2023-03-31T10:47:21.674Z,5.73
2023-03-31T10:48:31.142Z,4.17
2023-03-31T10:49:39.577Z,8.77
2023-03-31T10:50:44.236Z,5.05
2023-03-31T10:52:15.708Z,3.80
2023-03-31T10:53:18.614Z,4.10
2023-03-31T10:54:20.500Z,3.67
2023-03-31T10:55:34.037Z,5.22
2023-03-31T10:56:50.182Z,11.35
2023-03-31T10:58:01.074Z,12.68
2023-03-31T10:59:17.503Z,4.93
2023-03-31T11:00:37.977Z,5.70
2023-03-31T11:02:01.283Z,5.18
2023-03-31T11:03:37.649Z,6.88
2023-03-31T11:04:43.662Z,4.25
2023-03-31T11:05:58.985Z,5.85
2023-03-31T11:07:39.690Z,6.60
2023-03-31T11:09:20.623Z,2.67
2023-03-31T11:10:25.602Z,1.55
2023-03-31T11:11:50.666Z,3.92
2023-03-31T11:13:03.448Z,3.83
2023-03-31T11:14:08.200Z,3.30
2023-03-31T11:15:30.816Z,8.50
2023-03-31T11:16:38.891Z,2.20
2023-03-31T11:18:17.983Z,1.08
2023-03-31T11:19:22.518Z,1.67
2023-03-31T11:20:54.594Z,3.50
2023-03-31T11:22:45.371Z,1.20
2023-03-31T11:23:56.600Z,4.50
2023-03-31T11:25:13.881Z,1.60
2023-03-31T11:26:51.601Z,0.90
2023-03-31T11:28:20.917Z,1.75
2023-03-31T11:29:44.458Z,3.15
2023-03-31T11:30:49.523Z,1.10
2023-03-31T11:32:12.865Z,4.93
2023-03-31T11:33:37.000Z,2.30
2023-03-31T11:35:05.154Z,2.65
2023-03-31T11:36:26.142Z,10.97
2023-03-31T11:37:51.032Z,1.13
2023-03-31T11:39:10.376Z,1.83
2023-03-31T11:40:30.641Z,1.33
2023-03-31T11:41:43.919Z,0.90
2023-03-31T11:43:00.886Z,1.67
2023-03-31T11:44:06.437Z,6.93
2023-03-31T11:45:22.167Z,3.90
2023-03-31T11:46:28.292Z,2.43
2023-03-31T11:47:37.286Z,1.90
2023-03-31T11:48:48.324Z,0.90
2023-03-31T11:50:04.053Z,4.27
2023-03-31T11:51:14.027Z,4.00
2023-03-31T11:52:19.249Z,1.60
2023-03-31T11:53:28.278Z,1.00
2023-03-31T11:54:44.371Z,1.67
2023-03-31T11:55:48.767Z,6.50
2023-03-31T11:56:53.542Z,4.27
2023-03-31T11:58:08.489Z,5.10
2023-03-31T11:59:16.033Z,4.67
2023-03-31T12:00:21.885Z,5.60
2023-03-31T12:01:42.445Z,1.10
2023-03-31T12:02:47.110Z,3.30
2023-03-31T12:04:13.304Z,2.93
2023-03-31T12:05:18.301Z,2.10
2023-03-31T12:06:23.908Z,2.70
2023-03-31T12:07:51.465Z,5.00
2023-03-31T12:09:17.762Z,6.17
2023-03-31T12:10:21.300Z,6.90
2023-03-31T12:12:07.437Z,3.63
2023-03-31T12:13:59.460Z,3.23
2023-03-31T12:15:11.360Z,4.93
2023-03-31T12:16:21.775Z,3.27
2023-03-31T12:17:27.700Z,1.70
2023-03-31T12:18:44.269Z,1.70
2023-03-31T12:19:50.942Z,4.00
2023-03-31T12:20:56.491Z,5.07
2023-03-31T12:22:27.164Z,1.80
2023-03-31T12:23:33.509Z,5.30
2023-03-31T12:24:36.381Z,4.33
2023-03-31T12:26:16.613Z,2.80
2023-03-31T12:27:42.929Z,5.90
2023-03-31T12:28:46.949Z,6.43
2023-03-31T12:30:01.570Z,5.30
2023-03-31T12:31:07.433Z,3.63
2023-03-31T12:32:18.481Z,2.90
2023-03-31T12:33:32.312Z,4.97
2023-03-31T12:34:41.466Z,6.77
2023-03-31T12:36:14.613Z,4.20
2023-03-31T12:37:37.711Z,7.50
2023-03-31T12:39:08.880Z,4.47
2023-03-31T12:40:21.601Z,1.97
2023-03-31T12:41:31.174Z,4.20
2023-03-31T12:42:46.017Z,5.63
2023-03-31T12:44:14.983Z,4.73
2023-03-31T12:45:39.428Z,8.70
2023-03-31T12:47:08.943Z,2.55
2023-03-31T12:48:41.817Z,4.95
2023-03-31T12:49:50.440Z,4.97
2023-03-31T12:51:06.158Z,10.73
2023-03-31T12:52:54.185Z,4.87
2023-03-31T12:54:14.806Z,4.40
2023-03-31T12:55:38.050Z,3.80
2023-03-31T12:57:01.798Z,3.67
2023-03-31T12:58:22.376Z,4.87
2023-03-31T12:59:36.761Z,2.50
2023-03-31T13:01:07.249Z,3.15
2023-03-31T13:02:15.451Z,5.87
2023-03-31T13:03:40.686Z,4.83
2023-03-31T13:04:44.067Z,5.10
2023-03-31T13:05:49.760Z,5.60
2023-03-31T13:06:54.728Z,4.67
2023-03-31T13:07:56.542Z,4.30
2023-03-31T13:09:03.033Z,4.10
2023-03-31T13:10:32.227Z,4.68
2023-03-31T13:11:37.209Z,2.47
2023-03-31T13:12:39.203Z,4.22
2023-03-31T13:14:02.885Z,3.20
2023-03-31T13:15:05.664Z,5.53
2023-03-31T13:16:07.604Z,5.80
2023-03-31T13:17:36.512Z,6.20
2023-03-31T13:18:43.588Z,3.80
2023-03-31T13:19:47.444Z,2.40
2023-03-31T13:21:08.598Z,5.28
2023-03-31T13:22:34.123Z,3.70
2023-03-31T13:23:37.421Z,3.13
2023-03-31T13:24:39.405Z,7.25
2023-03-31T13:25:49.958Z,3.37
2023-03-31T13:26:54.899Z,6.03
2023-03-31T13:28:23.713Z,2.57
2023-03-31T13:29:44.220Z,6.17
2023-03-31T13:30:46.868Z,12.53
2023-03-31T13:32:01.438Z,8.18
2023-03-31T13:33:19.823Z,11.03
2023-03-31T13:34:22.029Z,9.20
2023-03-31T13:35:31.146Z,3.23
2023-03-31T13:36:33.018Z,2.30
2023-03-31T13:37:52.531Z,3.37
2023-03-31T13:39:44.330Z,4.57
2023-03-31T13:40:52.177Z,5.53
2023-03-31T13:42:04.683Z,3.83
2023-03-31T13:43:28.925Z,2.80
2023-03-31T13:44:33.623Z,3.37
2023-03-31T13:46:04.458Z,3.00
2023-03-31T13:47:18.462Z,2.50
2023-03-31T13:48:44.618Z,4.70
2023-03-31T13:50:02.153Z,7.47
2023-03-31T13:51:19.159Z,6.30
2023-03-31T13:52:48.164Z,2.72
2023-03-31T13:54:19.644Z,4.40
2023-03-31T13:55:53.901Z,1.60
2023-03-31T13:57:04.506Z,5.47
2023-03-31T13:58:33.648Z,5.63
2023-03-31T13:59:37.211Z,2.38
2023-03-31T14:00:48.462Z,1.50
2023-03-31T14:02:05.685Z,3.38
2023-03-31T14:03:50.676Z,2.13
2023-03-31T14:05:49.918Z,3.27
2023-03-31T14:07:13.812Z,5.90
2023-03-31T14:08:29.740Z,2.20
2023-03-31T14:09:37.377Z,1.47
2023-03-31T14:10:42.249Z,3.13
2023-03-31T14:11:43.953Z,3.30
2023-03-31T14:12:48.556Z,1.37
2023-03-31T14:14:19.720Z,3.23
2023-03-31T14:15:22.235Z,1.40
2023-03-31T14:16:25.641Z,5.90
2023-03-31T14:17:39.035Z,9.50
2023-03-31T14:18:52.987Z,4.33
2023-03-31T14:20:19.615Z,1.10
2023-03-31T14:21:35.173Z,3.37
2023-03-31T14:22:58.631Z,1.77
2023-03-31T14:24:05.486Z,1.63
2023-03-31T14:25:13.994Z,5.03
2023-03-31T14:27:18.582Z,1.90
2023-03-31T14:28:35.174Z,1.60
2023-03-31T14:29:49.070Z,1.83
2023-03-31T14:31:03.148Z,1.53
2023-03-31T14:32:16.842Z,25.13
2023-03-31T14:33:37.000Z,13.20
2023-03-31T14:34:52.296Z,14.20
2023-03-31T14:36:03.384Z,2.50
2023-03-31T14:37:08.457Z,2.77
2023-03-31T14:38:17.138Z,2.30
2023-03-31T14:39:23.215Z,6.03
2023-03-31T14:40:25.618Z,1.73
2023-03-31T14:41:30.724Z,3.03
2023-03-31T14:42:41.112Z,1.45
2023-03-31T14:43:51.291Z,4.47
2023-03-31T14:45:03.962Z,2.23
2023-03-31T14:46:09.956Z,3.72
2023-03-31T14:47:23.736Z,4.23
2023-03-31T14:48:28.646Z,3.87
2023-03-31T14:49:37.966Z,5.27
2023-03-31T14:50:44.316Z,1.00
2023-03-31T14:51:47.175Z,1.83
2023-03-31T14:52:52.595Z,2.50
2023-03-31T14:53:59.304Z,4.77
2023-03-31T14:55:01.452Z,1.37
2023-03-31T14:56:08.567Z,2.93
2023-03-31T14:57:13.582Z,3.87
2023-03-31T14:58:29.511Z,5.72
2023-03-31T14:59:34.552Z,4.63
2023-03-31T15:00:40.982Z,6.83
2023-03-31T15:01:48.043Z,7.20